LIMF

Turin Airport

Torino, Italy
TAF LIMF 221700Z 2218/2318 VRB05KT 9999 SCT050
Issued Valid From Valid To
Jul-22 @ 17:00 UTC
(3 hours ago)
Jul-22 @ 18:00 UTC
(2 hours ago)
Jul-23 @ 18:00 UTC
(in 22 hours)
Jul-22 @ 18:00 to Jul-23 @ 18:00
TAF LIMF 221700Z 2218/2318 VRB05KT 9999 SCT050
Wind Visibility Clouds
Variable at 5 knots 10,000+ meters
  • Scattered at 5,000' AGL
TAF LIMF 221700Z 2218/2318 VRB05KT 9999 SCT050
Issued Jul-22 @ 17:00 UTC
(3 hours ago)
Valid From Jul-22 @ 18:00 UTC
(2 hours ago)
Valid To Jul-23 @ 18:00 UTC
(in 22 hours)
Jul-22 @ 18:00 - Jul-23 @ 18:00
Wind Visibility
Variable at 5 knots 10,000+ meters
Clouds
  • Scattered at 5,000' AGL